Weather at Guelph Airport

Public forecast

Using degrees Celsius for public forecast. Weather courtesy of forecast.io.

Closest aviation weather report (METAR) to Guelph Airport

Closest report is Region of Waterloo International Airport, 10.1 nm (18.7 km) SW.

2024/05/22 20:00 (retrieved 35 minutes ago)

CYKF 222000Z AUTO 20017G31KT 9SM BKN043 26/18 A2972 RMK SLP060 DENSITY ALT 2900FT

Closest aviation forecast (TAF) to Guelph Airport

Closest forecast is Region of Waterloo International Airport, 10.1 nm (18.7 km) SW.

2024/05/22 20:42 (retrieved 0 seconds ago)

TAF CYKF 221940Z 2220/2308 20017G27KT P6SM BKN050 FM222100 22015G25KT P6SM SCT030 TEMPO 2221/2302 P6SM -SHRA BKN030 FM230200 29012G25KT P6SM FEW030 SCT130 FM230700 27008KT P6SM SKC RMK FCST BASED ON AUTO OBS NXT FCST BY 230200Z